Yellow Mule RAWS (NWS)

Jump to table bottom
Date/Time Wind Direction Wind Speed knots Wind Gust knots RH % Accumulated Precip Inches Air Temp Fahrenheit
2021-11-29 14:04 S 16 28 43 10.58 36
2021-11-29 13:04 SSW 19 31 44 10.58 36
2021-11-29 12:04 S 17 29 44 10.58 37
2021-11-29 11:04 S 11 16 66 10.58 32
2021-11-29 10:04 S 5 13 73 10.58 29
2021-11-29 09:04 S 3 11 65 10.58 30
2021-11-29 08:04 S 5 10 65 10.58 28
2021-11-29 07:04 S 7 19 65 10.58 29
2021-11-29 06:04 S 10 18 64 10.58 30
2021-11-29 05:04 S 14 20 65 10.58 30
2021-11-29 04:04 S 10 16 63 10.58 30
2021-11-29 03:04 S 10 16 63 10.58 30
2021-11-29 02:04 S 5 19 58 10.58 31
2021-11-29 01:04 SSW 14 26 52 10.58 33
2021-11-29 00:04 SSW 16 26 52 10.58 34
2021-11-28 23:04 S 17 31 54 10.58 34
2021-11-28 22:04 S 17 26 56 10.58 34
2021-11-28 21:04 S 14 30 55 10.58 35
2021-11-28 20:04 SSW 17 29 56 10.58 36
2021-11-28 19:04 SSW 17 30 57 10.58 36
2021-11-28 18:04 S 19 27 57 10.58 36
2021-11-28 17:04 SSW 20 31 58 10.58 37
2021-11-28 16:04 SSW 21 35 55 10.58 38
2021-11-28 15:04 SSW 27 42 53 10.58 40
2021-11-28 14:04 SSW 19 38 54 10.58 40
2021-11-28 13:04 SSW 21 36 58 10.58 40
2021-11-28 12:04 SW 13 31 63 10.58 39
2021-11-28 11:04 S 11 30 71 10.58 37
2021-11-28 10:04 SW 10 30 76 10.58 36
2021-11-28 09:04 SSW 10 27 79 10.58 35
2021-11-28 08:04 SSW 14 24 83 10.56 34
2021-11-28 07:04 SW 9 16 89 10.56 33
2021-11-28 06:04 S 5 9 97 10.56 31
2021-11-28 05:04 SSE 9 17 94 10.56 32
2021-11-28 04:04 SSW 11 22 97 10.56 31
2021-11-28 03:04 S 11 21 76 10.56 32
2021-11-28 02:04 S 6 23 67 10.56 32
2021-11-28 01:04 SSW 17 26 60 10.56 32
2021-11-28 00:04 S 10 25 53 10.56 32
2021-11-27 23:04 SSW 19 29 52 10.56 31
2021-11-27 22:04 SSW 21 30 58 10.56 30
2021-11-27 21:04 SSW 19 26 63 10.56 29
2021-11-27 20:04 SSW 8 17 64 10.56 28
2021-11-27 19:04 S 10 17 67 10.56 26
2021-11-27 18:04 S 8 23 67 10.56 26
2021-11-27 17:04 S 11 18 66 10.56 26
2021-11-27 16:04 S 7 17 53 10.56 29
2021-11-27 15:04 S 10 17 47 10.56 30
2021-11-27 14:04 SSE 5 12 54 10.56 30
2021-11-27 13:04 S 5 12 56 10.56 29